Flight Track Log - Related Links

Times and Time Zones

All times are in EDT time to prevent confusion due to time zone crossing. See the EJA396 flight status page for this flight to view local times or setup timezone preferences in your user account.

Time Position Orientation Groundspeed Altitude Reporting Facility
EDT Latitude Longitude Course Direction KTS MPH feet Rate Location/Type
Wed 12:07:44 AM 37.6333 -122.4000 133° Southeast 139 160 1,400  Level Northern Cal TRACON
Wed 12:08:44 AM 37.6500 -122.4667 288° West 226 260 5,800 4,650 Climbing Northern Cal TRACON
Wed 12:09:44 AM 37.6667 -122.5333 288° West 257 296 10,700 4,424 Climbing Northern Cal TRACON
Wed 12:10:23 AM 37.6411 -122.5631 223° Southwest 246 283 13,100 4,320 Climbing Oakland Center
Wed 12:11:24 AM 37.5617 -122.4989 147° Southeast 294 338 17,900 2,902 Climbing Oakland Center
Wed 12:12:25 AM 37.4869 -122.4153 138° Southeast 362 417 19,000 541 Climbing Oakland Center
Wed 12:13:00 AM 37.2715 -121.9564 133° Southeast  Level Estimated
Wed 12:13:26 AM 37.3983 -122.3172 139° Southeast 419 482 19,000  Level Oakland Center
Wed 12:14:27 AM 37.3111 -122.2203 139° Southeast 420 483 20,100 1,770 Climbing Oakland Center
Wed 12:15:28 AM 37.2236 -122.1253 139° Southeast 418 481 22,600 2,459 Climbing Oakland Center
Wed 12:16:29 AM 37.1350 -122.0269 138° Southeast 425 489 25,100 2,459 Climbing Oakland Center
Wed 12:17:30 AM 37.0436 -121.9286 139° Southeast 432 497 27,600 1,918 Climbing Oakland Center
Wed 12:18:31 AM 36.9514 -121.8269 139° Southeast 442 509 29,000 689 Climbing Oakland Center
Wed 12:19:32 AM 36.8500 -121.7236 141° Southeast 470 541 29,000  Level Oakland Center
Wed 12:20:33 AM 36.7356 -121.5983 139° Southeast 480 552 29,000  Level Oakland Center
Wed 12:21:34 AM 36.6353 -121.4881 139° Southeast 484 557 29,000  Level Oakland Center
Wed 12:22:35 AM 36.5333 -121.3783 139° Southeast 485 558 29,000  Level Oakland Center
Wed 12:23:36 AM 36.4317 -121.2700 139° Southeast 484 557 29,000  Level Oakland Center
Wed 12:24:37 AM 36.3314 -121.1619 139° Southeast 478 550 29,000  Level Oakland Center
Wed 12:25:38 AM 36.2325 -121.0544 139° Southeast 475 547 29,000  Level Oakland Center
Wed 12:26:39 AM 36.1336 -120.9483 139° Southeast 474 545 29,000  Level Oakland Center
Wed 12:27:40 AM 36.0328 -120.8431 140° Southeast 474 545 29,000  Level Oakland Center
Wed 12:28:41 AM 35.9328 -120.7375 139° Southeast 473 544 29,000  Level Oakland Center
Wed 12:29:42 AM 35.8325 -120.6319 140° Southeast 474 545 29,000  Level Oakland Center
Wed 12:30:43 AM 35.7328 -120.5272 140° Southeast 472 543 29,000  Level Oakland Center
Wed 12:31:44 AM 35.6311 -120.4214 140° Southeast 474 545 29,000  Level Oakland Center
Wed 12:32:45 AM 35.5303 -120.3150 139° Southeast 473 544 29,000  Level Oakland Center
Wed 12:33:45 AM 35.4242 -120.2058 140° Southeast 477 549 29,000  Level Oakland Center
Wed 12:34:41 AM 35.3208 -120.0975 139° Southeast 478 550 29,000  Level Los Angeles Center
Wed 12:35:42 AM 35.2186 -119.9922 140° Southeast 479 551 29,000 -49 Level Los Angeles Center
Wed 12:36:43 AM 35.1164 -119.8886 140° Southeast 477 549 28,900 -1,180 Descending Los Angeles Center
Wed 12:37:44 AM 35.0236 -119.7747 135° Southeast 473 544 26,600 -2,361 Descending Los Angeles Center
Wed 12:38:45 AM 34.9397 -119.6586 131° Southeast 462 532 24,100 -2,361 Descending Los Angeles Center
Wed 12:39:46 AM 34.8553 -119.5472 133° Southeast 452 520 21,800 -2,262 Descending Los Angeles Center
Wed 12:40:47 AM 34.7756 -119.4392 132° Southeast 436 502 19,500 -2,231 Descending Los Angeles Center
Wed 12:41:47 AM 34.6986 -119.3372 133° Southeast 417 480 17,300 -2,281 Descending Los Angeles Center
Wed 12:42:48 AM 34.6122 -119.2194 132° Southeast 396 456 14,900 -2,213 Descending Los Angeles Center
Wed 12:43:49 AM 34.5406 -119.1247 133° Southeast 384 442 12,800 -1,918 Descending Los Angeles Center
Wed 12:44:50 AM 34.4722 -119.0344 133° Southeast 359 413 11,000 -885 Descending Los Angeles Center
Wed 12:45:51 AM 34.4461 -118.9378 108° East 304 350 11,000 -1,230 Level Los Angeles Center
Wed 12:46:52 AM 34.4314 -118.8356 100° East 305 351 8,500 -1,967 Descending Los Angeles Center
Wed 12:47:53 AM 34.4167 -118.7386 100° East 296 341 7,000 -1,033 Descending Los Angeles Center
Wed 12:48:54 AM 34.4011 -118.6464 102° East 286 329 6,400 -1,180 Descending Los Angeles Center
Wed 12:49:55 AM 34.3747 -118.5622 111° Southeast 266 306 4,600 -1,129 Descending Los Angeles Center
Wed 12:50:35 AM 34.3500 -118.5167 123° Southeast 236 272 4,500 -960 Descending Southern California TRACON
Wed 12:51:35 AM 34.3000 -118.5000 165° South 184 212 3,000 -1,350 Descending Southern California TRACON
Wed 12:52:35 AM 34.2500 -118.5000 180° South 147 169 1,800 -1,200 Descending Southern California TRACON
Wed 12:55:00 AM 34.2098 -118.4900 180° South  Level Estimated

Login

Don't have an account? Register now (free) for customized features, flight alerts, and more!